Terminal Aerodrome Forecast
Issued by NWS

Home | Current Version | Previous Version | Text Only | Print | Product List | Glossary On
Versions: 1 2 3 4 5 6 7 8 9 10 11 12 13 14 15 16 17 18 19 20 21 22
000
FTUS43 KDVN 270000 AAA
TAFCID
TAF AMD
KCID 270018Z 2700/2724 04010KT 4SM -SN BR OVC012
     FM270400 35011KT 5SM -SN BR OVC020
     FM271100 32013KT P6SM OVC025
     FM271500 31009KT P6SM SCT025=

USA.gov is the U.S. government's official web portal to all federal, state and local government web resources and services.